Terminal Aerodrome Forecast
Issued by NWS

Home | Current Version | Previous Version | Text Only | Print | Product List | Glossary Off
Versions: 1 2 3 4 5 6 7 8 9 10 11 12 13 14 15 16 17 18 19 20 21 22 23 24 25

000
FTUS43 KGRB 251600 AAA
TAFCWA
TAF AMD
KCWA 251634Z 2517/2612 07009KT P6SM -SN BKN020 OVC040
     FM252000 05008KT P6SM SCT025
     FM252200 VRB03KT P6SM SCT200
     FM260200 VRB03KT P6SM SCT100
     FM260600 17004KT P6SM BKN090=

USA.gov is the U.S. government's official web portal to all federal, state and local government web resources and services.